createdAt,value
2019-03-04T00:01:22.028Z,62.43
2019-03-04T00:03:50.649Z,63.84
2019-03-04T00:06:19.601Z,64.08
2019-03-04T00:08:48.303Z,63.16
2019-03-04T00:11:16.894Z,64.22
2019-03-04T00:13:45.597Z,63.45
2019-03-04T00:16:14.220Z,62.54
2019-03-04T00:18:42.840Z,65.90
2019-03-04T00:21:11.590Z,63.66
2019-03-04T00:23:40.195Z,64.39
2019-03-04T00:26:08.885Z,64.53
2019-03-04T00:28:37.558Z,64.60
2019-03-04T00:31:06.233Z,62.27
2019-03-04T00:33:34.847Z,65.09
2019-03-04T00:36:03.540Z,65.96
2019-03-04T00:38:32.384Z,64.79
2019-03-04T00:41:01.001Z,63.26
2019-03-04T00:43:29.607Z,64.29
2019-03-04T00:45:58.219Z,65.16
2019-03-04T00:48:26.819Z,63.33
2019-03-04T00:50:55.456Z,64.66
2019-03-04T00:53:24.043Z,63.00
2019-03-04T00:55:52.689Z,64.06
2019-03-04T00:58:21.285Z,63.22
2019-03-04T01:00:49.963Z,64.40
2019-03-04T01:03:18.565Z,61.86
2019-03-04T01:05:47.376Z,62.03
2019-03-04T01:08:15.975Z,62.92
2019-03-04T01:10:44.696Z,62.25
2019-03-04T01:13:13.397Z,61.52
2019-03-04T01:15:42.253Z,61.22
2019-03-04T01:18:10.896Z,62.69
2019-03-04T01:20:39.508Z,62.90
2019-03-04T01:23:08.386Z,64.69
2019-03-04T01:25:37.217Z,63.56
2019-03-04T01:28:05.976Z,61.36
2019-03-04T01:30:34.585Z,64.22
2019-03-04T01:33:03.213Z,60.99
2019-03-04T01:35:31.813Z,59.34
2019-03-04T01:38:00.454Z,61.27
2019-03-04T01:40:29.281Z,63.27
2019-03-04T01:42:57.898Z,61.06
2019-03-04T01:45:26.691Z,62.86
2019-03-04T01:47:55.290Z,65.15
2019-03-04T01:50:24.405Z,63.10
2019-03-04T01:52:53.001Z,66.00
2019-03-04T01:55:21.612Z,64.44
2019-03-04T01:57:50.212Z,65.60
2019-03-04T02:00:19.571Z,64.43
2019-03-04T02:02:48.267Z,65.28
2019-03-04T02:05:17.181Z,64.28
2019-03-04T02:07:45.841Z,66.03
2019-03-04T02:10:15.872Z,66.23
2019-03-04T02:12:44.659Z,68.30
2019-03-04T02:15:17.766Z,66.48
2019-03-04T02:17:46.612Z,69.08
2019-03-04T02:20:16.359Z,68.09
2019-03-04T02:22:46.117Z,65.96
2019-03-04T02:25:16.232Z,66.89
2019-03-04T02:27:51.684Z,68.80
2019-03-04T02:30:27.142Z,67.04
2019-03-04T02:32:55.793Z,65.75
2019-03-04T02:35:24.501Z,66.93
2019-03-04T02:37:53.188Z,66.93
2019-03-04T02:40:21.787Z,67.40
2019-03-04T02:42:50.359Z,66.77
2019-03-04T02:45:19.522Z,67.33
2019-03-04T02:47:48.329Z,67.16
2019-03-04T02:50:17.052Z,67.63
2019-03-04T02:52:45.656Z,66.29
2019-03-04T02:55:15.147Z,66.70
2019-03-04T02:57:43.771Z,66.88
2019-03-04T03:00:13.318Z,67.56
2019-03-04T03:02:41.930Z,65.94
2019-03-04T03:05:10.602Z,66.05
2019-03-04T03:07:39.221Z,66.50
2019-03-04T03:10:07.963Z,65.42
2019-03-04T03:12:36.560Z,64.15
2019-03-04T03:15:05.968Z,66.47
2019-03-04T03:17:34.648Z,65.55
2019-03-04T03:20:03.240Z,65.39
2019-03-04T03:22:31.821Z,63.23
2019-03-04T03:25:00.462Z,64.31
2019-03-04T03:27:29.026Z,62.64
2019-03-04T03:29:57.663Z,64.71
2019-03-04T03:32:26.431Z,64.96
2019-03-04T03:34:55.127Z,64.60
2019-03-04T03:37:23.721Z,65.47
2019-03-04T03:39:52.316Z,65.32
2019-03-04T03:42:20.936Z,63.73
2019-03-04T03:44:49.536Z,63.64
2019-03-04T03:47:18.450Z,64.37
2019-03-04T03:49:47.050Z,64.52
2019-03-04T03:52:15.667Z,66.20
2019-03-04T03:54:44.308Z,64.12
2019-03-04T03:57:12.906Z,62.55
2019-03-04T03:59:41.612Z,64.27
2019-03-04T04:02:10.376Z,65.53
2019-03-04T04:04:38.962Z,65.53
2019-03-04T04:07:07.560Z,65.43
2019-03-04T04:09:36.130Z,66.03
2019-03-04T04:12:04.717Z,65.55
2019-03-04T04:14:33.596Z,65.32
2019-03-04T04:17:02.220Z,66.92
2019-03-04T04:19:30.770Z,66.32
2019-03-04T04:21:59.393Z,66.63
2019-03-04T04:24:28.004Z,66.82
2019-03-04T04:26:56.728Z,65.71
2019-03-04T04:29:25.584Z,63.38
2019-03-04T04:31:54.207Z,64.00
2019-03-04T04:34:22.828Z,65.22
2019-03-04T04:36:51.445Z,65.79
2019-03-04T04:39:20.154Z,63.72
2019-03-04T04:41:48.771Z,64.60
2019-03-04T04:44:17.482Z,64.75
2019-03-04T04:46:56.583Z,62.80
2019-03-04T04:49:32.671Z,64.02
2019-03-04T04:52:01.278Z,62.31
2019-03-04T04:54:30.142Z,64.06
2019-03-04T04:56:58.730Z,62.71
2019-03-04T04:59:27.368Z,63.52
2019-03-04T05:01:56.026Z,63.01
2019-03-04T05:04:24.678Z,61.74
2019-03-04T05:06:53.291Z,62.71
2019-03-04T05:09:21.949Z,62.97
2019-03-04T05:11:50.535Z,61.04
2019-03-04T05:14:19.233Z,61.25
2019-03-04T05:16:47.828Z,61.13
2019-03-04T05:19:16.454Z,63.13
2019-03-04T05:21:45.071Z,61.44
2019-03-04T05:24:13.738Z,61.62
2019-03-04T05:26:42.390Z,62.07
2019-03-04T05:29:11.056Z,63.74
2019-03-04T05:31:39.639Z,60.04
2019-03-04T05:34:08.311Z,60.84
2019-03-04T05:36:36.929Z,60.54
2019-03-04T05:39:06.996Z,61.05
2019-03-04T05:41:35.605Z,62.38
2019-03-04T05:44:04.203Z,63.32
2019-03-04T05:46:32.875Z,60.25
2019-03-04T05:49:01.494Z,61.93
2019-03-04T05:51:30.141Z,60.94
2019-03-04T05:53:58.800Z,61.82
2019-03-04T05:56:27.503Z,60.80
2019-03-04T05:59:02.093Z,61.16
2019-03-04T06:01:35.049Z,60.68
2019-03-04T06:04:08.430Z,60.11
2019-03-04T06:06:52.373Z,59.71
2019-03-04T06:09:22.066Z,60.43
2019-03-04T06:11:50.657Z,61.20
2019-03-04T06:14:19.335Z,62.18
2019-03-04T06:16:50.113Z,59.04
2019-03-04T06:19:19.202Z,59.47
2019-03-04T06:21:48.316Z,58.72
2019-03-04T06:24:18.068Z,61.58
2019-03-04T06:26:46.659Z,60.38
2019-03-04T06:29:15.270Z,59.46
2019-03-04T06:31:44.217Z,59.39
2019-03-04T06:34:12.988Z,59.29
2019-03-04T06:36:41.674Z,58.39
2019-03-04T06:39:10.423Z,57.37
2019-03-04T06:41:39.064Z,59.17
2019-03-04T06:44:08.162Z,59.33
2019-03-04T06:46:36.830Z,58.10
2019-03-04T06:49:05.470Z,61.66
2019-03-04T06:51:39.326Z,59.28
2019-03-04T06:54:32.477Z,59.34
2019-03-04T06:57:28.446Z,57.83
2019-03-04T07:00:30.949Z,59.18
2019-03-04T07:03:00.528Z,59.30
2019-03-04T07:05:49.378Z,58.33
2019-03-04T07:08:56.563Z,57.79
2019-03-04T07:13:59.713Z,54.49
2019-03-04T07:16:28.582Z,58.38
2019-03-04T07:18:57.296Z,58.12
2019-03-04T07:21:26.036Z,59.10
2019-03-04T07:23:54.656Z,59.82
2019-03-04T07:26:23.720Z,56.72
2019-03-04T07:28:52.416Z,57.80
2019-03-04T07:31:21.109Z,60.12
2019-03-04T07:33:49.804Z,62.14
2019-03-04T07:36:18.698Z,62.01
2019-03-04T07:39:07.793Z,62.69
2019-03-04T07:41:56.295Z,62.33
2019-03-04T07:44:25.023Z,64.21
2019-03-04T07:47:12.890Z,61.73
2019-03-04T07:49:41.496Z,61.73
2019-03-04T07:52:10.240Z,62.24
2019-03-04T07:54:38.928Z,62.70
2019-03-04T08:00:33.655Z,60.60
2019-03-04T08:03:21.558Z,60.60
2019-03-04T08:05:50.187Z,57.98
2019-03-04T08:08:18.803Z,57.98
2019-03-04T08:11:11.106Z,61.31
2019-03-04T08:13:59.588Z,61.76
2019-03-04T08:16:28.242Z,65.45
2019-03-04T08:18:56.880Z,69.33
2019-03-04T08:21:25.664Z,67.57
2019-03-04T08:23:54.581Z,66.55
2019-03-04T08:26:23.261Z,68.01
2019-03-04T08:28:51.845Z,66.22
2019-03-04T08:31:20.758Z,66.98
2019-03-04T08:33:49.699Z,66.66
2019-03-04T08:36:18.463Z,67.87
2019-03-04T08:39:06.791Z,66.05
2019-03-04T08:44:09.660Z,65.71
2019-03-04T08:46:38.358Z,65.47
2019-03-04T08:49:07.243Z,65.59
2019-03-04T08:51:35.927Z,62.15
2019-03-04T08:54:23.942Z,62.15
2019-03-04T08:56:52.932Z,59.23
2019-03-04T08:59:22.209Z,56.21
2019-03-04T09:02:10.169Z,59.68
2019-03-04T09:04:38.811Z,59.68
2019-03-04T09:07:07.430Z,60.20
2019-03-04T09:09:36.144Z,60.99
2019-03-04T09:12:04.951Z,58.72
2019-03-04T09:14:33.546Z,58.72
2019-03-04T09:17:21.439Z,52.86
2019-03-04T09:19:50.133Z,52.86
2019-03-04T09:22:19.041Z,47.89
2019-03-04T09:24:47.659Z,45.31
2019-03-04T09:27:16.317Z,44.72
2019-03-04T09:29:46.716Z,45.32
2019-03-04T09:32:15.333Z,47.47
2019-03-04T09:34:43.990Z,51.00
2019-03-04T09:37:12.776Z,52.57
2019-03-04T09:39:41.472Z,53.84
2019-03-04T09:42:18.676Z,53.73
2019-03-04T09:44:47.781Z,53.85
2019-03-04T09:50:14.656Z,52.83
2019-03-04T09:53:02.579Z,52.83
2019-03-04T09:55:31.560Z,53.44
2019-03-04T09:58:00.560Z,52.54
2019-03-04T10:01:07.685Z,53.29
2019-03-04T10:03:59.444Z,53.67
2019-03-04T10:06:50.706Z,52.69
2019-03-04T10:09:46.821Z,55.23
2019-03-04T10:12:54.062Z,55.99
2019-03-04T10:16:01.217Z,54.18
2019-03-04T10:19:08.596Z,53.13
2019-03-04T10:22:02.102Z,53.13
2019-03-04T10:25:09.255Z,53.71
2019-03-04T10:28:16.414Z,58.63
2019-03-04T10:31:23.595Z,60.92
2019-03-04T10:34:32.086Z,59.06
2019-03-04T10:37:25.450Z,60.53
2019-03-04T10:40:32.572Z,62.91
2019-03-04T10:43:39.703Z,62.89
2019-03-04T10:46:47.122Z,63.18
2019-03-04T10:49:16.099Z,64.87
2019-03-04T10:52:04.270Z,63.45
2019-03-04T10:57:21.071Z,59.95
2019-03-04T10:59:49.687Z,59.95
2019-03-04T11:02:18.615Z,59.09
2019-03-04T11:04:47.207Z,57.16
2019-03-04T11:07:15.823Z,57.16
2019-03-04T11:10:03.839Z,58.26
2019-03-04T11:12:32.484Z,58.26
2019-03-04T11:15:01.087Z,62.07
2019-03-04T11:17:29.892Z,62.07
2019-03-04T11:19:58.751Z,61.23
2019-03-04T11:22:27.682Z,63.26
2019-03-04T11:24:56.525Z,63.37
2019-03-04T11:27:25.371Z,65.50
2019-03-04T11:29:54.046Z,64.00
2019-03-04T11:32:23.027Z,64.00
2019-03-04T11:34:51.926Z,62.82
2019-03-04T11:37:20.633Z,63.20
2019-03-04T11:40:08.446Z,63.20
2019-03-04T11:42:37.217Z,62.29
2019-03-04T11:45:08.888Z,60.86
2019-03-04T11:47:37.576Z,60.86
2019-03-04T11:50:09.637Z,59.09
2019-03-04T11:52:38.385Z,58.05
2019-03-04T11:55:08.279Z,58.05
2019-03-04T11:57:37.632Z,58.62
2019-03-04T12:00:49.969Z,58.62
2019-03-04T12:03:18.983Z,58.63
2019-03-04T12:05:47.977Z,58.22
2019-03-04T12:08:16.699Z,58.22
2019-03-04T12:10:45.526Z,56.22
2019-03-04T12:13:14.229Z,56.22
2019-03-04T12:16:02.111Z,55.51
2019-03-04T12:18:50.004Z,55.51
2019-03-04T12:21:38.078Z,55.67
2019-03-04T12:24:06.779Z,54.65
2019-03-04T12:26:35.493Z,54.65
2019-03-04T12:29:04.272Z,54.52
2019-03-04T12:36:57.687Z,57.25
2019-03-04T12:42:15.335Z,57.03
2019-03-04T12:44:44.175Z,56.39
2019-03-04T12:47:16.250Z,56.39
2019-03-04T12:49:44.568Z,58.78
2019-03-04T12:52:13.254Z,59.28
2019-03-04T12:54:42.173Z,59.28
2019-03-04T12:57:13.121Z,60.46
2019-03-04T12:59:41.972Z,60.46
2019-03-04T13:02:10.778Z,57.07
2019-03-04T13:04:39.461Z,58.09
2019-03-04T13:07:08.168Z,58.09
2019-03-04T13:09:36.998Z,61.35
2019-03-04T21:26:41.458Z,60.37
2019-03-04T21:29:35.345Z,59.91
2019-03-04T21:32:35.458Z,61.47
2019-03-04T21:35:28.611Z,59.75
2019-03-04T21:38:37.377Z,60.42
2019-03-04T21:41:44.631Z,59.53
2019-03-04T21:44:51.745Z,59.92
2019-03-04T21:47:41.472Z,59.88
2019-03-04T21:50:50.779Z,61.40
2019-03-04T21:53:40.904Z,59.49
2019-03-04T21:56:31.924Z,60.39
2019-03-04T21:59:00.637Z,60.48
2019-03-04T22:02:00.064Z,59.86
2019-03-04T22:04:28.730Z,57.79
2019-03-04T22:09:31.643Z,60.86
2019-03-04T22:12:19.720Z,61.52
2019-03-04T22:15:07.945Z,60.33
2019-03-04T22:17:36.708Z,63.95
2019-03-04T22:20:24.747Z,63.86
2019-03-04T22:23:12.754Z,64.22
2019-03-04T22:25:41.360Z,63.78
2019-03-04T22:28:10.008Z,67.65
2019-03-04T22:30:38.751Z,66.06
2019-03-04T22:33:07.439Z,67.75
2019-03-04T22:35:36.107Z,67.77
2019-03-04T22:38:04.698Z,67.14
2019-03-04T22:54:04.425Z,68.03
2019-03-04T22:56:33.028Z,68.62
2019-03-04T22:59:01.672Z,70.12
2019-03-04T23:02:08.802Z,69.82
2019-03-04T23:05:19.169Z,71.24
2019-03-04T23:08:08.513Z,71.86
2019-03-04T23:10:40.407Z,70.76
2019-03-04T23:13:47.518Z,70.99
2019-03-04T23:16:36.707Z,71.23
2019-03-04T23:19:05.395Z,69.72
2019-03-04T23:21:34.090Z,69.28
2019-03-04T23:24:02.699Z,69.85
2019-03-04T23:26:31.320Z,68.77
2019-03-04T23:34:21.315Z,69.72
2019-03-04T23:36:50.006Z,70.64
2019-03-04T23:42:25.499Z,70.48
2019-03-04T23:45:13.450Z,70.56
2019-03-04T23:47:42.082Z,69.98
2019-03-04T23:50:16.465Z,70.97
2019-03-04T23:52:47.654Z,72.37
2019-03-04T23:55:16.399Z,72.01
2019-03-04T23:57:45.001Z,69.97
